home / openregs

legislation_cosponsors

Cosponsors for tracked legislation. Distinguishes original cosponsors (signed on at introduction) from later additions. Linked to congress_members via bioguide_id.

Data license: Public Domain (U.S. Government data) · Data source: Federal Register API & Regulations.gov API

61 rows where bill_id = "103-hr-877" sorted by sponsorship_date descending

✎ View and edit SQL

This data as json, CSV (advanced)

Suggested facets: party, state, sponsorship_date (date)

is_original_cosponsor 1

  • 1 61
Link bill_id bioguide_id full_name party state sponsorship_date ▲ is_original_cosponsor
103-hr-877,A000014 National African American Museum Act 103-hr-877 A000014 Rep. Abercrombie, Neil [D-HI-1] D HI 1993-02-04 1
103-hr-877,B000177 National African American Museum Act 103-hr-877 B000177 Rep. Barrett, Thomas M. [D-WI-5] D WI 1993-02-04 1
103-hr-877,B000490 National African American Museum Act 103-hr-877 B000490 Rep. Bishop, Sanford D., Jr. [D-GA-2] D GA 1993-02-04 1
103-hr-877,B000517 National African American Museum Act 103-hr-877 B000517 Rep. Blackwell, Lucien E. [D-PA-2] D PA 1993-02-04 1
103-hr-877,B000619 National African American Museum Act 103-hr-877 B000619 Rep. Bonior, David E. [D-MI-10] D MI 1993-02-04 1
103-hr-877,B000911 National African American Museum Act 103-hr-877 B000911 Rep. Brown, Corrine [D-FL-3] D FL 1993-02-04 1
103-hr-877,C000488 National African American Museum Act 103-hr-877 C000488 Rep. Clay, William (Bill) [D-MO-1] D MO 1993-02-04 1
103-hr-877,C000494 National African American Museum Act 103-hr-877 C000494 Rep. Clayton, Eva M. [D-NC-1] D NC 1993-02-04 1
103-hr-877,C000537 National African American Museum Act 103-hr-877 C000537 Rep. Clyburn, James E. [D-SC-6] D SC 1993-02-04 1
103-hr-877,C000633 National African American Museum Act 103-hr-877 C000633 Rep. Collins, Barbara-Rose [D-MI-15] D MI 1993-02-04 1
103-hr-877,C000634 National African American Museum Act 103-hr-877 C000634 Rep. Collins, Cardiss [D-IL-7] D IL 1993-02-04 1
103-hr-877,C000714 National African American Museum Act 103-hr-877 C000714 Rep. Conyers, John, Jr. [D-MI-14] D MI 1993-02-04 1
103-hr-877,C000868 National African American Museum Act 103-hr-877 C000868 Rep. Cramer, Robert E. (Bud), Jr. [D-AL-5] D AL 1993-02-04 1
103-hr-877,D000222 National African American Museum Act 103-hr-877 D000222 Rep. Dellums, Ronald V. [D-CA-9] D CA 1993-02-04 1
103-hr-877,D000209 National African American Museum Act 103-hr-877 D000209 Del. de Lugo, Ron [D-VI-At Large] D VI 1993-02-04 1
103-hr-877,D000373 National African American Museum Act 103-hr-877 D000373 Rep. Dixon, Julian C. [D-CA-32] D CA 1993-02-04 1
103-hr-877,F000116 National African American Museum Act 103-hr-877 F000116 Rep. Filner, Bob [D-CA-50] D CA 1993-02-04 1
103-hr-877,F000128 National African American Museum Act 103-hr-877 F000128 Rep. Fingerhut, Eric D. [D-OH-19] D OH 1993-02-04 1
103-hr-877,F000184 National African American Museum Act 103-hr-877 F000184 Rep. Flake, Floyd H. [D-NY-6] D NY 1993-02-04 1
103-hr-877,F000261 National African American Museum Act 103-hr-877 F000261 Rep. Ford, Harold E. [D-TN-9] D TN 1993-02-04 1
103-hr-877,F000392 National African American Museum Act 103-hr-877 F000392 Rep. Frost, Martin [D-TX-24] D TX 1993-02-04 1
103-hr-877,H000324 National African American Museum Act 103-hr-877 H000324 Rep. Hastings, Alcee L. [D-FL-23] D FL 1993-02-04 1
103-hr-877,H000621 National African American Museum Act 103-hr-877 H000621 Rep. Hilliard, Earl F. [D-AL-7] D AL 1993-02-04 1
103-hr-877,H000627 National African American Museum Act 103-hr-877 H000627 Rep. Hinchey, Maurice D. [D-NY-26] D NY 1993-02-04 1
103-hr-877,J000070 National African American Museum Act 103-hr-877 J000070 Rep. Jefferson, William J. [D-LA-2] D LA 1993-02-04 1
103-hr-877,J000126 National African American Museum Act 103-hr-877 J000126 Rep. Johnson, Eddie Bernice [D-TX-30] D TX 1993-02-04 1
103-hr-877,K000118 National African American Museum Act 103-hr-877 K000118 Rep. Kennelly, Barbara B. [D-CT-1] D CT 1993-02-04 1
103-hr-877,K000172 National African American Museum Act 103-hr-877 K000172 Rep. Kildee, Dale E. [D-MI-9] D MI 1993-02-04 1
103-hr-877,L000045 National African American Museum Act 103-hr-877 L000045 Rep. Lancaster, H. Martin [D-NC-3] D NC 1993-02-04 1
103-hr-877,M000291 National African American Museum Act 103-hr-877 M000291 Rep. Mazzoli, Romano L. [D-KY-3] D KY 1993-02-04 1
103-hr-877,M000523 National African American Museum Act 103-hr-877 M000523 Rep. McKinney, Cynthia A. [D-GA-11] D GA 1993-02-04 1
103-hr-877,M000628 National African American Museum Act 103-hr-877 M000628 Rep. Meek, Carrie P. [D-FL-17] D FL 1993-02-04 1
103-hr-877,M000687 National African American Museum Act 103-hr-877 M000687 Rep. Mfume, Kweisi [D-MD-7] D MD 1993-02-04 1
103-hr-877,M000725 National African American Museum Act 103-hr-877 M000725 Rep. Miller, George [D-CA-7] D CA 1993-02-04 1
103-hr-877,M000794 National African American Museum Act 103-hr-877 M000794 Rep. Mineta, Norman Y. [D-CA-15] D CA 1993-02-04 1
103-hr-877,M000933 National African American Museum Act 103-hr-877 M000933 Rep. Moran, James P. [D-VA-8] D VA 1993-02-04 1
103-hr-877,N000147 National African American Museum Act 103-hr-877 N000147 Del. Norton, Eleanor Holmes [D-DC-At Large] D DC 1993-02-04 1
103-hr-877,O000159 National African American Museum Act 103-hr-877 O000159 Rep. Owens, Major R. [D-NY-11] D NY 1993-02-04 1
103-hr-877,P000066 National African American Museum Act 103-hr-877 P000066 Rep. Parker, Mike [D-MS-4] D MS 1993-02-04 1
103-hr-877,P000149 National African American Museum Act 103-hr-877 P000149 Rep. Payne, Donald M. [D-NJ-10] D NJ 1993-02-04 1
103-hr-877,R000178 National African American Museum Act 103-hr-877 R000178 Rep. Reynolds, Mel [D-IL-2] D IL 1993-02-04 1
103-hr-877,R000417 National African American Museum Act 103-hr-877 R000417 Resident Commissioner Romero-Barcelo, Carlos A. [D-PR-At Large] D PR 1993-02-04 1
103-hr-877,R000515 National African American Museum Act 103-hr-877 R000515 Rep. Rush, Bobby L. [D-IL-1] D IL 1993-02-04 1
103-hr-877,S000148 National African American Museum Act 103-hr-877 S000148 Rep. Schumer, Charles E. [D-NY-9] D NY 1993-02-04 1
103-hr-877,S000185 National African American Museum Act 103-hr-877 S000185 Rep. Scott, Robert C. "Bobby" [D-VA-3] D VA 1993-02-04 1
103-hr-877,S001144 National African American Museum Act 103-hr-877 S001144 Rep. Shays, Christopher [R-CT-4] R CT 1993-02-04 1
103-hr-877,S000453 National African American Museum Act 103-hr-877 S000453 Rep. Sisisky, Norman [D-VA-4] D VA 1993-02-04 1
103-hr-877,S000480 National African American Museum Act 103-hr-877 S000480 Rep. Slaughter, Louise McIntosh [D-NY-28] D NY 1993-02-04 1
103-hr-877,S000948 National African American Museum Act 103-hr-877 S000948 Rep. Stokes, Louis [D-OH-11] D OH 1993-02-04 1
103-hr-877,T000326 National African American Museum Act 103-hr-877 T000326 Rep. Towns, Edolphus [D-NY-10] D NY 1993-02-04 1
103-hr-877,T000405 National African American Museum Act 103-hr-877 T000405 Rep. Tucker, Walter R., III [D-CA-37] D CA 1993-02-04 1
103-hr-877,V000081 National African American Museum Act 103-hr-877 V000081 Rep. Velazquez, Nydia M. [D-NY-12] D NY 1993-02-04 1
103-hr-877,V000087 National African American Museum Act 103-hr-877 V000087 Rep. Vento, Bruce F. [D-MN-4] D MN 1993-02-04 1
103-hr-877,W000177 National African American Museum Act 103-hr-877 W000177 Rep. Washington, Craig A. [D-TX-18] D TX 1993-02-04 1
103-hr-877,W000187 National African American Museum Act 103-hr-877 W000187 Rep. Waters, Maxine [D-CA-35] D CA 1993-02-04 1
103-hr-877,W000207 National African American Museum Act 103-hr-877 W000207 Rep. Watt, Melvin L. [D-NC-12] D NC 1993-02-04 1
103-hr-877,W000326 National African American Museum Act 103-hr-877 W000326 Rep. Wheat, Alan [D-MO-5] D MO 1993-02-04 1
103-hr-877,W000738 National African American Museum Act 103-hr-877 W000738 Rep. Woolsey, Lynn C. [D-CA-6] D CA 1993-02-04 1
103-hr-877,W000784 National African American Museum Act 103-hr-877 W000784 Rep. Wynn, Albert Russell [D-MD-4] D MD 1993-02-04 1
103-hr-877,F000110 National African American Museum Act 103-hr-877 F000110 Rep. Fields, Cleo [D-LA-4] D LA 1993-02-04 1
103-hr-877,R000053 National African American Museum Act 103-hr-877 R000053 Rep. Rangel, Charles B. [D-NY-15] D NY 1993-02-04 1

Advanced export

JSON shape: default, array, newline-delimited, object

CSV options:

CREATE TABLE legislation_cosponsors (
    bill_id TEXT NOT NULL REFERENCES legislation(bill_id),
    bioguide_id TEXT NOT NULL,
    full_name TEXT,
    party TEXT,
    state TEXT,
    sponsorship_date TEXT,
    is_original_cosponsor INTEGER,
    PRIMARY KEY (bill_id, bioguide_id)
);
CREATE INDEX idx_lc_bioguide ON legislation_cosponsors(bioguide_id);
CREATE INDEX idx_lc_bill ON legislation_cosponsors(bill_id);
CREATE INDEX idx_lc_original ON legislation_cosponsors(is_original_cosponsor);
Powered by Datasette · Queries took 200.129ms · Data license: Public Domain (U.S. Government data) · Data source: Federal Register API & Regulations.gov API